Hutchinson Municipal Airport
KHUT : rendu visible

Aérodrome :











RETROUVEZ-NOUS SUR...

 
LOGIN :

S'inscrire | Disclaimer

   EN    FR    IT 

 









Légende :    VFR   VFR Marginal   IFR   IFR Intensif   IFR Très Intensif
Visi : 
Plafond : 
>= 8 km
>= 3000ft
5 à 8 km
1000 à 3000 ft
1500m à 5 km
500 à 1000 ft
800 à 1500m
200 à 500 ft
< 800m
< 200 ft
Symboles :   Orages  Brouillard  Fortes neiges  Fortes précipitations  Vent > 20 kt






- Altitude de l'aérodrome : 1543 ft


KHUT - Hutchinson Municipal

DERNIER METAR :
  • 251252Z 01009KT 8SM OVC007 02/M01 A3012 RMK AO2 SLP203 T00221006

METARs EXPIRÉS :
  • 251211Z 02007KT 6SM BR OVC009 02/00 A3012 RMK AO2 CIG 006V011 T00220000
  • 251152Z 02008KT 5SM HZ OVC010 03/00 A3013 RMK AO2 CIG 007V013 SLP203 T00280000 10039 20028 53010
  • 251052Z 02008KT 8SM BKN012 OVC020 03/00 A3012 RMK AO2 SLP200 T00280000

TAF KHUT
Valide du 25 à 12h jusqu'au 26 à 12h UTC


251159Z 2512/2612 03010KT P6SM OVC012
TEMPO 2512/2514 5SM BR OVC009
FM251600 03012KT P6SM OVC020
FM260100 02014G20KT P6SM -RA OVC014
FM260400 02015G22KT 5SM -FZRA BR OVC010
FM260900 01016G23KT 3SM -SN BR OVC012
FIR KZKC / Amérique du Nord



MET'MAP, la Météo Aéronautique d'un coup d'oeil ! - Copyright ORBIFLY Décembre 2007 - Disclaimer

ORBIFLY MET'MAP TEAM :

Programmation & Développement : Alexandra Zaïnal
Sur une idée originale de : Baudouin d'Aumeries
Assistance à la programmation : Marc-Olivier Méhu
Soutien technique & logistique : Manuel Goepfert

Contact : metmap@orbifly.com




SOURCES & CREDITS :

   NOAA       Earth
Advisory